createdAt,value
2019-03-22T00:01:18.231Z,6.31
2019-03-22T00:03:48.137Z,6.15
2019-03-22T00:06:31.539Z,6.36
2019-03-22T00:09:01.347Z,6.20
2019-03-22T00:11:31.153Z,6.12
2019-03-22T00:14:01.027Z,6.05
2019-03-22T00:16:30.851Z,6.06
2019-03-22T00:19:00.686Z,6.25
2019-03-22T00:21:30.475Z,6.23
2019-03-22T00:24:00.381Z,6.23
2019-03-22T00:26:32.462Z,6.18
2019-03-22T00:29:01.753Z,6.13
2019-03-22T00:31:31.545Z,6.25
2019-03-22T00:34:01.383Z,6.28
2019-03-22T00:36:31.165Z,6.18
2019-03-22T00:39:00.952Z,6.14
2019-03-22T00:41:30.767Z,6.12
2019-03-22T00:44:00.584Z,6.00
2019-03-22T00:46:30.416Z,5.92
2019-03-22T00:49:00.226Z,5.96
2019-03-22T00:51:30.064Z,5.93
2019-03-22T00:53:59.850Z,5.86
2019-03-22T00:56:29.667Z,5.76
2019-03-22T00:58:59.506Z,5.80
2019-03-22T01:01:29.307Z,5.91
2019-03-22T01:03:59.117Z,5.86
2019-03-22T01:06:28.897Z,5.68
2019-03-22T01:08:58.728Z,5.77
2019-03-22T01:11:28.522Z,5.70
2019-03-22T01:13:58.300Z,5.70
2019-03-22T01:16:28.123Z,5.58
2019-03-22T01:18:57.912Z,5.77
2019-03-22T01:21:27.745Z,5.65
2019-03-22T01:23:59.835Z,5.69
2019-03-22T01:26:29.110Z,5.59
2019-03-22T01:28:58.919Z,5.61
2019-03-22T01:31:28.693Z,5.65
2019-03-22T01:33:58.511Z,5.56
2019-03-22T01:36:28.296Z,5.55
2019-03-22T01:38:58.111Z,5.51
2019-03-22T01:41:27.883Z,5.42
2019-03-22T01:43:57.701Z,5.47
2019-03-22T01:46:27.507Z,5.30
2019-03-22T01:48:57.291Z,5.25
2019-03-22T01:51:27.105Z,5.22
2019-03-22T01:53:56.918Z,5.09
2019-03-22T01:56:26.726Z,4.96
2019-03-22T01:58:56.528Z,4.96
2019-03-22T02:01:26.351Z,4.89
2019-03-22T02:03:56.245Z,4.82
2019-03-22T02:06:26.045Z,4.62
2019-03-22T02:08:55.848Z,4.61
2019-03-22T02:11:25.633Z,4.50
2019-03-22T02:13:55.444Z,4.45
2019-03-22T02:16:25.248Z,4.47
2019-03-22T02:18:55.061Z,4.45
2019-03-22T02:21:24.864Z,4.43
2019-03-22T02:23:54.682Z,4.27
2019-03-22T02:26:24.486Z,4.27
2019-03-22T02:28:54.283Z,4.25
2019-03-22T02:31:24.094Z,4.13
2019-03-22T02:33:53.988Z,3.95
2019-03-22T02:36:23.760Z,4.20
2019-03-22T02:38:53.547Z,4.16
2019-03-22T02:41:23.375Z,4.20
2019-03-22T02:43:54.749Z,4.33
2019-03-22T02:46:24.788Z,4.31
2019-03-22T02:48:54.594Z,4.14
2019-03-22T02:51:24.418Z,4.15
2019-03-22T02:53:54.176Z,4.24
2019-03-22T02:56:23.963Z,4.24
2019-03-22T02:58:53.771Z,4.13
2019-03-22T03:01:23.598Z,4.15
2019-03-22T03:03:55.547Z,4.13
2019-03-22T03:06:25.052Z,4.02
2019-03-22T03:08:54.871Z,3.91
2019-03-22T03:11:25.608Z,3.70
2019-03-22T03:13:55.462Z,3.67
2019-03-22T03:16:25.495Z,3.66
2019-03-22T03:18:55.308Z,3.65
2019-03-22T03:21:25.236Z,3.60
2019-03-22T03:23:55.043Z,3.33
2019-03-22T03:26:24.858Z,3.45
2019-03-22T03:28:54.670Z,3.46
2019-03-22T03:31:28.661Z,3.35
2019-03-22T03:33:58.505Z,3.44
2019-03-22T03:36:28.310Z,3.57
2019-03-22T03:38:58.102Z,3.57
2019-03-22T03:41:28.226Z,3.59
2019-03-22T03:43:58.036Z,3.56
2019-03-22T03:46:27.874Z,3.46
2019-03-22T03:48:57.671Z,3.68
2019-03-22T03:51:27.474Z,3.56
2019-03-22T03:53:57.285Z,3.32
2019-03-22T03:56:27.085Z,3.24
2019-03-22T03:58:56.877Z,3.25
2019-03-22T04:01:26.660Z,3.24
2019-03-22T04:03:56.496Z,3.13
2019-03-22T04:06:26.283Z,3.12
2019-03-22T04:08:56.141Z,3.11
2019-03-22T04:11:25.978Z,3.23
2019-03-22T04:13:55.824Z,3.19
2019-03-22T04:16:25.611Z,3.34
2019-03-22T04:18:55.454Z,3.39
2019-03-22T04:21:25.751Z,3.59
2019-03-22T04:23:55.570Z,3.53
2019-03-22T04:26:25.388Z,3.72
2019-03-22T04:29:06.813Z,3.62
2019-03-22T04:31:26.783Z,3.61
2019-03-22T04:33:56.609Z,3.65
2019-03-22T04:36:26.418Z,3.70
2019-03-22T04:38:56.209Z,3.33
2019-03-22T04:41:26.010Z,3.24
2019-03-22T04:43:55.798Z,3.25
2019-03-22T04:46:27.140Z,2.94
2019-03-22T04:48:57.612Z,3.05
2019-03-22T04:51:28.193Z,3.11
2019-03-22T04:54:02.279Z,3.15
2019-03-22T04:56:34.916Z,2.97
2019-03-22T04:59:18.437Z,2.93
2019-03-22T05:01:42.223Z,2.89
2019-03-22T05:04:12.906Z,2.87
2019-03-22T05:06:43.847Z,2.83
2019-03-22T05:09:15.856Z,2.86
2019-03-22T05:11:47.854Z,2.58
2019-03-22T05:14:18.643Z,2.59
2019-03-22T05:16:50.786Z,2.73
2019-03-22T05:19:22.923Z,2.68
2019-03-22T05:21:54.609Z,2.70
2019-03-22T05:24:25.866Z,2.60
2019-03-22T05:26:58.797Z,2.60
2019-03-22T05:29:32.666Z,2.71
2019-03-22T05:32:10.296Z,2.73
2019-03-22T05:34:40.094Z,2.65
2019-03-22T05:37:10.054Z,2.55
2019-03-22T05:39:39.885Z,2.74
2019-03-22T05:42:09.683Z,2.74
2019-03-22T05:44:39.491Z,2.79
2019-03-22T05:47:09.323Z,2.80
2019-03-22T05:49:39.175Z,2.72
2019-03-22T05:52:08.995Z,2.80
2019-03-22T05:54:38.825Z,2.67
2019-03-22T05:57:13.318Z,2.80
2019-03-22T05:59:42.719Z,2.87
2019-03-22T06:02:11.839Z,2.92
2019-03-22T06:04:42.332Z,3.05
2019-03-22T06:07:12.647Z,3.21
2019-03-22T06:09:42.758Z,3.25
2019-03-22T06:12:13.098Z,3.39
2019-03-22T06:14:47.138Z,3.50
2019-03-22T06:17:17.476Z,3.58
2019-03-22T06:19:47.588Z,3.59
2019-03-22T06:22:17.455Z,3.71
2019-03-22T06:24:47.737Z,3.76
2019-03-22T06:27:17.767Z,3.77
2019-03-22T06:29:54.271Z,3.86
2019-03-22T06:32:20.025Z,3.87
2019-03-22T06:34:50.220Z,3.90
2019-03-22T06:37:20.302Z,4.09
2019-03-22T06:39:50.386Z,4.16
2019-03-22T06:42:20.610Z,4.18
2019-03-22T06:44:50.694Z,4.26
2019-03-22T06:47:21.183Z,4.27
2019-03-22T06:49:51.240Z,4.44
2019-03-22T06:52:21.452Z,4.47
2019-03-22T06:54:51.626Z,4.55
2019-03-22T06:57:21.434Z,4.68
2019-03-22T06:59:51.296Z,4.78
2019-03-22T07:02:21.144Z,4.88
2019-03-22T07:04:51.027Z,5.04
2019-03-22T07:07:20.805Z,5.35
2019-03-22T07:09:50.585Z,5.53
2019-03-22T07:12:20.381Z,5.60
2019-03-22T07:14:50.223Z,5.87
2019-03-22T07:17:20.086Z,6.10
2019-03-22T07:19:49.875Z,6.70
2019-03-22T07:22:19.716Z,7.57
2019-03-22T07:24:49.569Z,9.20
2019-03-22T07:27:19.421Z,11.37
2019-03-22T07:29:49.222Z,11.53
2019-03-22T07:32:19.035Z,14.07
2019-03-22T07:34:48.888Z,15.32
2019-03-22T07:37:30.476Z,16.18
2019-03-22T07:40:00.483Z,16.02
2019-03-22T07:42:30.303Z,17.45
2019-03-22T07:45:00.283Z,18.09
2019-03-22T07:47:30.168Z,18.81
2019-03-22T07:49:59.943Z,17.99
2019-03-22T07:52:29.813Z,18.00
2019-03-22T07:54:59.629Z,18.37
2019-03-22T07:57:29.536Z,18.11
2019-03-22T07:59:59.369Z,18.97
2019-03-22T08:02:29.183Z,19.32
2019-03-22T08:04:59.031Z,17.91
2019-03-22T08:07:29.079Z,20.09
2019-03-22T08:09:59.052Z,19.50
2019-03-22T08:12:28.932Z,17.80
2019-03-22T08:14:58.788Z,19.26
2019-03-22T08:17:28.599Z,20.19
2019-03-22T08:19:58.412Z,20.43
2019-03-22T08:22:28.283Z,19.59
2019-03-22T08:24:58.109Z,19.25
2019-03-22T08:27:27.940Z,18.99
2019-03-22T08:29:57.858Z,20.06
2019-03-22T08:32:27.647Z,21.40
2019-03-22T08:34:57.504Z,18.67
2019-03-22T08:37:27.361Z,21.10
2019-03-22T08:39:57.208Z,21.75
2019-03-22T08:42:27.086Z,19.26
2019-03-22T08:44:56.862Z,18.72
2019-03-22T08:47:33.969Z,21.91
2019-03-22T08:49:58.242Z,23.13
2019-03-22T08:52:28.096Z,18.66
2019-03-22T08:54:58.053Z,19.95
2019-03-22T08:57:27.896Z,21.61
2019-03-22T08:59:57.709Z,20.37
2019-03-22T09:02:27.554Z,19.97
2019-03-22T09:04:57.372Z,19.89
2019-03-22T09:07:27.159Z,19.93
2019-03-22T09:09:56.952Z,19.24
2019-03-22T09:12:27.057Z,19.46
2019-03-22T09:14:56.888Z,18.22
2019-03-22T09:17:26.689Z,18.06
2019-03-22T09:19:56.599Z,17.78
2019-03-22T09:22:26.457Z,17.05
2019-03-22T09:24:56.303Z,17.24
2019-03-22T09:27:26.075Z,18.04
2019-03-22T09:29:55.997Z,17.73
2019-03-22T09:32:25.843Z,16.87
2019-03-22T09:34:55.758Z,16.91
2019-03-22T09:37:25.631Z,17.53
2019-03-22T09:39:56.520Z,18.09
2019-03-22T09:42:26.478Z,18.14
2019-03-22T09:44:56.242Z,19.93
2019-03-22T09:47:26.104Z,20.20
2019-03-22T09:49:55.916Z,20.40
2019-03-22T09:52:25.738Z,20.65
2019-03-22T09:54:55.879Z,19.13
2019-03-22T09:57:25.726Z,19.41
2019-03-22T09:59:55.620Z,21.40
2019-03-22T10:02:25.407Z,19.57
2019-03-22T10:04:55.265Z,19.81
2019-03-22T10:07:25.082Z,18.80
2019-03-22T10:09:54.999Z,20.27
2019-03-22T10:12:24.842Z,20.36
2019-03-22T10:14:54.657Z,19.86
2019-03-22T10:17:24.510Z,20.38
2019-03-22T10:19:54.349Z,21.82
2019-03-22T10:22:24.293Z,20.51
2019-03-22T10:24:54.078Z,20.12
2019-03-22T10:27:23.934Z,21.53
2019-03-22T10:29:53.782Z,20.45
2019-03-22T10:32:23.957Z,20.48
2019-03-22T10:34:53.896Z,19.89
2019-03-22T10:37:23.740Z,20.35
2019-03-22T10:39:53.550Z,20.24
2019-03-22T10:42:23.504Z,20.87
2019-03-22T10:44:53.323Z,21.85
2019-03-22T10:47:23.169Z,20.63
2019-03-22T10:49:53.103Z,20.68
2019-03-22T10:52:22.969Z,21.03
2019-03-22T10:54:52.914Z,20.90
2019-03-22T10:57:23.119Z,22.61
2019-03-22T10:59:53.059Z,21.30
2019-03-22T11:02:27.512Z,19.72
2019-03-22T11:04:57.330Z,20.85
2019-03-22T11:07:27.113Z,20.89
2019-03-22T11:09:56.906Z,20.16
2019-03-22T11:12:26.722Z,20.33
2019-03-22T11:14:56.597Z,21.04
2019-03-22T11:17:26.445Z,21.46
2019-03-22T11:19:57.536Z,21.04
2019-03-22T11:22:27.469Z,21.41
2019-03-22T11:24:57.309Z,21.34
2019-03-22T11:27:27.162Z,21.38
2019-03-22T11:29:56.985Z,20.84
2019-03-22T11:32:26.855Z,21.03
2019-03-22T11:34:56.704Z,21.42
2019-03-22T11:37:26.499Z,21.89
2019-03-22T11:39:56.327Z,21.64
2019-03-22T11:42:26.147Z,21.56
2019-03-22T11:44:56.081Z,21.41
2019-03-22T11:47:25.875Z,22.44
2019-03-22T11:49:55.687Z,22.16
2019-03-22T11:52:25.469Z,21.60
2019-03-22T11:54:55.273Z,21.47
2019-03-22T11:57:25.084Z,21.82
2019-03-22T11:59:55.018Z,22.50
2019-03-22T12:02:24.870Z,22.88
2019-03-22T12:04:54.663Z,21.37
2019-03-22T12:07:24.473Z,22.57
2019-03-22T12:09:54.271Z,23.63
2019-03-22T12:12:24.107Z,23.51
2019-03-22T12:14:53.933Z,23.02
2019-03-22T12:17:23.728Z,24.83
2019-03-22T12:19:53.638Z,23.93
2019-03-22T12:22:23.421Z,25.06
2019-03-22T12:24:53.267Z,23.60
2019-03-22T12:27:23.044Z,24.03
2019-03-22T12:29:53.467Z,21.96
2019-03-22T12:32:31.936Z,24.19
2019-03-22T12:34:54.812Z,23.33
2019-03-22T12:37:24.638Z,24.04
2019-03-22T12:39:54.455Z,24.14
2019-03-22T12:42:24.265Z,25.75
2019-03-22T12:44:54.117Z,25.24
2019-03-22T12:47:24.401Z,24.47
2019-03-22T12:49:54.255Z,25.17
2019-03-22T12:52:24.111Z,24.54
2019-03-22T12:54:53.888Z,23.45
2019-03-22T12:57:23.692Z,22.81
2019-03-22T12:59:53.534Z,22.37
2019-03-22T13:02:23.426Z,22.49
2019-03-22T13:04:53.266Z,21.94
2019-03-22T13:07:23.077Z,21.94
2019-03-22T13:09:52.928Z,22.11
2019-03-22T13:12:22.826Z,21.49
2019-03-22T13:14:52.662Z,21.94
2019-03-22T13:17:22.598Z,22.33
2019-03-22T13:19:52.413Z,21.16
2019-03-22T13:22:22.379Z,21.39
2019-03-22T13:24:52.183Z,20.96
2019-03-22T13:27:22.015Z,20.32
2019-03-22T13:29:51.804Z,20.10
2019-03-22T13:32:23.582Z,20.38
2019-03-22T13:34:53.411Z,21.18
2019-03-22T13:37:23.169Z,21.39
2019-03-22T13:39:53.022Z,20.81
2019-03-22T13:42:22.835Z,20.29
2019-03-22T13:44:52.667Z,20.28
2019-03-22T13:47:22.478Z,20.21
2019-03-22T13:49:52.333Z,20.47
2019-03-22T13:52:22.136Z,20.49
2019-03-22T13:54:51.996Z,20.22
2019-03-22T13:57:21.855Z,20.60
2019-03-22T13:59:51.695Z,20.78
2019-03-22T14:02:22.998Z,21.12
2019-03-22T14:04:52.930Z,21.35
2019-03-22T14:07:22.744Z,21.05
2019-03-22T14:09:52.545Z,20.39
2019-03-22T14:12:22.597Z,20.39
2019-03-22T14:14:52.406Z,20.28
2019-03-22T14:17:22.524Z,20.23
2019-03-22T14:19:52.350Z,20.28
2019-03-22T14:22:22.134Z,19.84
2019-03-22T14:24:51.968Z,19.83
2019-03-22T14:27:23.746Z,19.87
2019-03-22T14:29:53.714Z,19.95
2019-03-22T14:32:23.672Z,19.65
2019-03-22T14:34:53.505Z,19.78
2019-03-22T14:37:23.317Z,19.76
2019-03-22T14:39:53.120Z,19.49
2019-03-22T14:42:23.027Z,19.46
2019-03-22T14:44:52.833Z,19.65
2019-03-22T14:47:22.728Z,19.41
2019-03-22T14:49:52.519Z,19.38
2019-03-22T14:52:22.376Z,19.58
2019-03-22T14:54:52.251Z,19.50
2019-03-22T14:57:22.108Z,19.36
2019-03-22T14:59:58.885Z,19.36
2019-03-22T15:02:23.473Z,19.34
2019-03-22T15:04:53.313Z,19.07
2019-03-22T15:07:23.151Z,19.25
2019-03-22T15:09:53.033Z,19.24
2019-03-22T15:12:22.910Z,19.12
2019-03-22T15:15:23.977Z,19.24
2019-03-22T15:18:18.463Z,19.18
2019-03-22T15:21:05.638Z,19.22
2019-03-22T15:24:03.181Z,19.29
2019-03-22T15:26:45.402Z,19.33
2019-03-22T15:29:40.092Z,19.09
2019-03-22T15:32:27.584Z,19.10
2019-03-22T15:35:16.195Z,18.97
2019-03-22T15:38:03.632Z,19.20
2019-03-22T15:40:33.429Z,18.97
2019-03-22T15:43:03.268Z,19.07
2019-03-22T15:45:33.135Z,19.08
2019-03-22T15:48:02.978Z,18.97
2019-03-22T15:50:32.772Z,18.81
2019-03-22T15:53:02.610Z,18.83
2019-03-22T15:55:32.439Z,18.94
2019-03-22T15:58:02.329Z,18.88
2019-03-22T16:00:32.247Z,18.89
2019-03-22T16:03:02.053Z,18.88
2019-03-22T16:05:31.927Z,18.99
2019-03-22T16:08:01.720Z,18.87
2019-03-22T16:10:31.547Z,18.83
2019-03-22T16:13:01.344Z,18.76
2019-03-22T16:15:31.173Z,18.80
2019-03-22T16:18:00.983Z,18.85
2019-03-22T16:20:30.774Z,18.71
2019-03-22T16:23:00.607Z,18.60
2019-03-22T16:25:30.447Z,18.54
2019-03-22T16:28:00.295Z,18.51
2019-03-22T16:30:32.199Z,18.44
2019-03-22T16:33:02.044Z,18.55
2019-03-22T16:35:31.881Z,18.55
2019-03-22T16:38:01.693Z,18.41
2019-03-22T16:40:31.523Z,18.40
2019-03-22T16:43:01.305Z,18.40
2019-03-22T16:45:39.339Z,18.43
2019-03-22T16:48:09.513Z,18.38
2019-03-22T16:50:39.550Z,18.36
2019-03-22T16:53:09.388Z,18.31
2019-03-22T16:55:39.233Z,18.30
2019-03-22T16:58:09.040Z,18.13
2019-03-22T17:00:39.259Z,18.20
2019-03-22T17:03:09.106Z,18.20
2019-03-22T17:05:39.050Z,18.23
2019-03-22T17:08:08.865Z,18.23
2019-03-22T17:10:38.673Z,18.05
2019-03-22T17:13:08.598Z,17.97
2019-03-22T17:15:38.390Z,18.12
2019-03-22T17:18:08.244Z,18.01
2019-03-22T17:20:38.094Z,17.91
2019-03-22T17:23:07.938Z,17.98
2019-03-22T17:25:37.733Z,17.90
2019-03-22T17:28:07.531Z,17.77
2019-03-22T17:30:37.384Z,17.59
2019-03-22T17:33:08.050Z,17.56
2019-03-22T17:35:37.915Z,17.46
2019-03-22T17:38:07.764Z,17.45
2019-03-22T17:40:37.620Z,17.43
2019-03-22T17:43:07.411Z,17.26
2019-03-22T17:45:37.276Z,17.13
2019-03-22T17:48:07.945Z,17.14
2019-03-22T17:50:37.912Z,17.05
2019-03-22T17:53:07.870Z,17.00
2019-03-22T17:55:38.537Z,17.03
2019-03-22T17:58:08.717Z,16.89
2019-03-22T18:00:39.333Z,16.99
2019-03-22T18:03:09.763Z,16.90
2019-03-22T18:05:39.893Z,16.84
2019-03-22T18:08:10.291Z,16.87
2019-03-22T18:10:40.284Z,16.72
2019-03-22T18:13:10.150Z,16.79
2019-03-22T18:15:40.118Z,16.66
2019-03-22T18:18:10.021Z,16.62
2019-03-22T18:20:41.231Z,16.54
2019-03-22T18:23:11.351Z,16.53
2019-03-22T18:25:41.427Z,16.49
2019-03-22T18:28:11.512Z,16.46
2019-03-22T18:30:41.448Z,16.49
2019-03-22T18:33:21.673Z,16.41
2019-03-22T18:35:52.396Z,16.22
2019-03-22T18:38:22.660Z,16.22
2019-03-22T18:40:52.485Z,16.11
2019-03-22T18:43:22.922Z,16.00
2019-03-22T18:45:52.814Z,15.91
2019-03-22T18:48:22.702Z,15.86
2019-03-22T18:50:56.657Z,15.81
2019-03-22T18:53:24.278Z,15.72
2019-03-22T18:55:55.411Z,15.62
2019-03-22T18:58:26.506Z,15.57
2019-03-22T19:01:49.615Z,15.42
2019-03-22T19:04:20.444Z,15.24
2019-03-22T19:06:51.682Z,15.09
2019-03-22T19:09:23.494Z,14.77
2019-03-22T19:11:55.055Z,14.76
2019-03-22T19:14:37.696Z,14.63
2019-03-22T19:17:09.171Z,14.59
2019-03-22T19:19:40.653Z,14.59
2019-03-22T19:22:13.490Z,14.78
2019-03-22T19:24:44.995Z,14.51
2019-03-22T19:27:17.523Z,14.55
2019-03-22T19:29:48.862Z,14.45
2019-03-22T19:32:19.978Z,14.41
2019-03-22T19:34:54.283Z,14.33
2019-03-22T19:37:21.500Z,14.20
2019-03-22T19:39:51.449Z,14.18
2019-03-22T19:42:21.152Z,14.12
2019-03-22T19:44:50.987Z,14.05
2019-03-22T19:47:21.208Z,14.02
2019-03-22T19:49:51.025Z,13.90
2019-03-22T19:52:20.811Z,13.80
2019-03-22T19:54:50.625Z,13.66
2019-03-22T19:57:20.431Z,13.68
2019-03-22T19:59:50.297Z,13.62
2019-03-22T20:02:20.167Z,13.62
2019-03-22T20:04:50.114Z,13.49
2019-03-22T20:07:26.773Z,13.45
2019-03-22T20:09:51.743Z,13.33
2019-03-22T20:12:21.610Z,13.02
2019-03-22T20:14:51.404Z,13.09
2019-03-22T20:17:21.226Z,12.97
2019-03-22T20:19:51.046Z,12.95
2019-03-22T20:22:21.894Z,12.83
2019-03-22T20:24:51.876Z,12.84
2019-03-22T20:27:21.774Z,12.92
2019-03-22T20:29:51.617Z,12.75
2019-03-22T20:32:21.731Z,12.82
2019-03-22T20:34:51.886Z,12.63
2019-03-22T20:37:23.939Z,12.54
2019-03-22T20:39:53.823Z,12.48
2019-03-22T20:42:23.756Z,12.46
2019-03-22T20:44:53.728Z,12.44
2019-03-22T20:47:23.586Z,12.50
2019-03-22T20:49:53.497Z,12.43
2019-03-22T20:52:23.332Z,12.35
2019-03-22T20:54:53.267Z,12.36
2019-03-22T20:57:23.106Z,12.14
2019-03-22T20:59:52.920Z,12.13
2019-03-22T21:02:22.859Z,12.10
2019-03-22T21:04:52.926Z,11.79
2019-03-22T21:07:22.814Z,11.97
2019-03-22T21:09:52.645Z,11.59
2019-03-22T21:12:22.614Z,11.51
2019-03-22T21:14:52.435Z,11.59
2019-03-22T21:17:22.317Z,11.50
2019-03-22T21:19:52.231Z,11.57
2019-03-22T21:22:22.051Z,11.47
2019-03-22T21:24:51.949Z,11.37
2019-03-22T21:27:21.917Z,11.45
2019-03-22T21:29:52.278Z,11.18
2019-03-22T21:32:22.394Z,10.99
2019-03-22T21:34:52.361Z,11.14
2019-03-22T21:37:22.268Z,11.08
2019-03-22T21:39:52.456Z,11.11
2019-03-22T21:42:22.423Z,11.07
2019-03-22T21:44:52.646Z,11.10
2019-03-22T21:47:22.594Z,11.06
2019-03-22T21:49:52.401Z,10.74
2019-03-22T21:52:22.329Z,10.67
2019-03-22T21:54:52.354Z,10.80
2019-03-22T21:57:22.223Z,10.79
2019-03-22T21:59:52.653Z,10.72
2019-03-22T22:02:24.633Z,10.62
2019-03-22T22:04:54.588Z,10.39
2019-03-22T22:07:24.518Z,10.29
2019-03-22T22:09:54.420Z,10.17
2019-03-22T22:12:24.359Z,10.21
2019-03-22T22:14:54.227Z,10.14
2019-03-22T22:17:24.996Z,10.16
2019-03-22T22:19:54.924Z,10.17
2019-03-22T22:22:24.775Z,10.07
2019-03-22T22:24:54.611Z,10.04
2019-03-22T22:27:24.444Z,9.86
2019-03-22T22:29:54.278Z,10.02
2019-03-22T22:32:24.320Z,9.81
2019-03-22T22:34:54.326Z,9.88
2019-03-22T22:37:24.278Z,9.86
2019-03-22T22:39:54.230Z,9.80
2019-03-22T22:42:24.032Z,9.74
2019-03-22T22:44:53.873Z,9.51
2019-03-22T22:47:23.733Z,9.64
2019-03-22T22:49:53.610Z,9.41
2019-03-22T22:52:23.536Z,9.47
2019-03-22T22:54:53.438Z,9.59
2019-03-22T22:57:23.275Z,9.46
2019-03-22T22:59:53.098Z,9.43
2019-03-22T23:02:23.033Z,9.35
2019-03-22T23:04:52.953Z,9.22
2019-03-22T23:07:22.768Z,9.52
2019-03-22T23:09:52.606Z,9.48
2019-03-22T23:12:22.976Z,9.39
2019-03-22T23:14:52.811Z,9.30
2019-03-22T23:17:22.716Z,9.37
2019-03-22T23:19:52.828Z,9.30
2019-03-22T23:22:24.511Z,9.10
2019-03-22T23:24:54.434Z,9.08
2019-03-22T23:27:24.301Z,9.08
2019-03-22T23:29:54.103Z,9.11
2019-03-22T23:32:24.038Z,9.23
2019-03-22T23:34:58.919Z,9.17
2019-03-22T23:37:25.445Z,8.78
2019-03-22T23:39:55.307Z,8.93
2019-03-22T23:42:25.128Z,9.06
2019-03-22T23:44:55.003Z,9.04
2019-03-22T23:47:24.895Z,8.62
2019-03-22T23:49:54.802Z,8.75
2019-03-22T23:52:24.809Z,8.80
2019-03-22T23:54:54.711Z,8.54
2019-03-22T23:57:24.673Z,8.65
2019-03-22T23:59:54.554Z,8.61
